CheckWX is a tool to help pilots better visualize weather data.  It is not intended as a substitute for an official pre-flight weather briefing.

19:39:21 UTC

LDZD METAR
Zemunik Airport
Zadar, Croatia
Current

39 mins ago

LDZD 061900Z VRB01KT CAVOK 09/01 Q1026 NOSIG
Observed
Apr-6 @ 19:00 UTC
Wind
  • Variable at 1 KTS
Visibility
10,000+ meters
Flight Rules
VFR
Cloud Levels
  • Clear skies
Temperature
C / 48°F
Dewpoint
C / 34°F
Humidity
58%
Altimeter
30.3" Hg
Pressure
1025.92 hPa
Previous

1 hour ago

LDZD 061830Z 30001KT CAVOK 10/01 Q1026 NOSIG
Observed
Apr-6 @ 18:30 UTC
Wind
  • 300° at 1 KTS
Visibility
10,000+ meters
Flight Rules
VFR
Cloud Levels
  • Clear skies
Temperature
10°C / 50°F
Dewpoint
C / 34°F
Humidity
54%
Altimeter
30.3" Hg
Pressure
1025.92 hPa
Previous

2 hours ago

LDZD 061800Z 33004KT CAVOK 12/02 Q1025 NOSIG
Observed
Apr-6 @ 18:00 UTC
Wind
  • 330° at 4 KTS
Visibility
10,000+ meters
Flight Rules
VFR
Cloud Levels
  • Clear skies
Temperature
12°C / 54°F
Dewpoint
C / 36°F
Humidity
51%
Altimeter
30.27" Hg
Pressure
1024.92 hPa